createdAt,value
2024-03-12T00:00:42.313Z,97.35
2024-03-12T00:03:11.019Z,103.05
2024-03-12T00:05:39.806Z,95.78
2024-03-12T00:08:06.993Z,85.28
2024-03-12T00:10:34.284Z,100.17
2024-03-12T00:13:03.271Z,97.65
2024-03-12T00:15:31.119Z,88.53
2024-03-12T00:17:57.989Z,93.60
2024-03-12T00:20:34.662Z,91.78
2024-03-12T00:23:02.402Z,89.03
2024-03-12T00:25:31.823Z,88.25
2024-03-12T00:28:00.187Z,83.13
2024-03-12T00:30:28.595Z,82.63
2024-03-12T00:32:58.109Z,95.82
2024-03-12T00:35:26.409Z,80.10
2024-03-12T00:37:53.756Z,84.47
2024-03-12T00:40:21.554Z,90.03
2024-03-12T00:42:49.527Z,77.13
2024-03-12T00:45:21.457Z,88.15
2024-03-12T00:47:48.865Z,83.93
2024-03-12T00:50:17.334Z,77.53
2024-03-12T00:52:44.567Z,94.30
2024-03-12T00:55:17.443Z,77.25
2024-03-12T00:57:46.555Z,90.95
2024-03-12T01:00:26.520Z,87.30
2024-03-12T01:02:55.499Z,83.03
2024-03-12T01:05:27.288Z,82.28
2024-03-12T01:07:55.441Z,79.10
2024-03-12T01:10:23.203Z,91.40
2024-03-12T01:12:53.419Z,78.57
2024-03-12T01:15:22.149Z,83.55
2024-03-12T01:17:49.297Z,71.20
2024-03-12T01:20:21.589Z,81.07
2024-03-12T01:22:51.711Z,87.93
2024-03-12T01:25:19.491Z,81.53
2024-03-12T01:27:46.829Z,89.07
2024-03-12T01:30:17.965Z,93.90
2024-03-12T01:32:49.243Z,84.05
2024-03-12T01:35:16.223Z,82.63
2024-03-12T01:37:46.696Z,82.40
2024-03-12T01:40:27.612Z,95.88
2024-03-12T01:43:03.406Z,81.03
2024-03-12T01:45:32.230Z,78.32
2024-03-12T01:48:12.192Z,73.10
2024-03-12T01:50:40.576Z,81.73
2024-03-12T01:53:09.157Z,88.47
2024-03-12T01:55:45.486Z,101.63
2024-03-12T01:58:19.536Z,75.53
2024-03-12T02:00:47.231Z,89.13
2024-03-12T02:03:15.378Z,86.73
2024-03-12T02:05:43.460Z,75.75
2024-03-12T02:08:11.919Z,81.57
2024-03-12T02:10:38.756Z,90.78
2024-03-12T02:13:06.478Z,68.88
2024-03-12T02:15:35.384Z,84.47
2024-03-12T02:18:03.089Z,81.78
2024-03-12T02:20:30.470Z,93.47
2024-03-12T02:22:57.967Z,82.18
2024-03-12T02:25:25.683Z,86.25
2024-03-12T02:27:54.049Z,87.57
2024-03-12T02:30:22.698Z,83.95
2024-03-12T02:32:50.719Z,85.10
2024-03-12T02:35:18.409Z,88.15
2024-03-12T02:37:46.132Z,70.13
2024-03-12T02:40:15.613Z,94.73
2024-03-12T02:42:44.168Z,89.57
2024-03-12T02:45:21.917Z,84.35
2024-03-12T02:47:49.598Z,75.90
2024-03-12T02:50:17.596Z,77.75
2024-03-12T02:52:46.239Z,78.23
2024-03-12T02:55:13.973Z,75.88
2024-03-12T02:57:40.920Z,82.93
2024-03-12T03:00:14.191Z,74.35
2024-03-12T03:02:43.376Z,70.35
2024-03-12T03:05:11.383Z,72.57
2024-03-12T03:07:38.924Z,67.32
2024-03-12T03:10:07.451Z,67.15
2024-03-12T03:12:34.774Z,68.03
2024-03-12T03:15:02.636Z,63.40
2024-03-12T03:17:29.497Z,71.30
2024-03-12T03:19:56.832Z,60.70
2024-03-12T03:22:24.154Z,61.53
2024-03-12T03:24:51.522Z,60.80
2024-03-12T03:27:18.827Z,62.95
2024-03-12T03:29:45.776Z,58.63
2024-03-12T03:32:12.621Z,61.60
2024-03-12T03:34:39.960Z,67.55
2024-03-12T03:37:08.115Z,80.47
2024-03-12T03:39:38.314Z,71.93
2024-03-12T03:42:05.413Z,71.13
2024-03-12T03:44:32.791Z,81.57
2024-03-12T03:47:00.041Z,66.18
2024-03-12T03:49:27.295Z,69.45
2024-03-12T03:51:54.711Z,54.60
2024-03-12T03:54:22.185Z,73.00
2024-03-12T03:56:49.196Z,64.55
2024-03-12T03:59:17.842Z,66.00
2024-03-12T04:01:45.230Z,67.45
2024-03-12T04:04:14.337Z,64.72
2024-03-12T04:06:45.045Z,67.43
2024-03-12T04:09:12.874Z,45.03
2024-03-12T04:11:40.390Z,59.38
2024-03-12T04:14:09.026Z,54.75
2024-03-12T04:16:36.338Z,51.00
2024-03-12T04:19:06.111Z,62.40
2024-03-12T04:21:33.726Z,69.57
2024-03-12T04:24:01.418Z,63.53
2024-03-12T04:26:30.231Z,61.83
2024-03-12T04:28:58.348Z,71.30
2024-03-12T04:31:26.869Z,63.63
2024-03-12T04:33:54.519Z,73.30
2024-03-12T04:36:24.389Z,64.05
2024-03-12T04:38:51.678Z,62.67
2024-03-12T04:41:21.860Z,71.25
2024-03-12T04:43:50.137Z,68.43
2024-03-12T04:46:17.048Z,64.80
2024-03-12T04:48:44.451Z,60.90
2024-03-12T04:51:12.243Z,69.07
2024-03-12T04:53:39.740Z,60.00
2024-03-12T04:56:09.331Z,52.67
2024-03-12T04:58:38.076Z,56.55
2024-03-12T05:01:07.445Z,56.75
2024-03-12T05:03:35.974Z,65.00
2024-03-12T05:06:03.413Z,53.45
2024-03-12T05:08:30.740Z,59.63
2024-03-12T05:11:00.200Z,59.85
2024-03-12T05:13:29.398Z,53.28
2024-03-12T05:15:56.725Z,61.72
2024-03-12T05:18:23.617Z,77.95
2024-03-12T05:20:52.369Z,66.73
2024-03-12T05:23:19.813Z,43.88
2024-03-12T05:25:47.909Z,57.90
2024-03-12T05:28:15.486Z,64.53
2024-03-12T05:30:43.570Z,63.47
2024-03-12T05:33:13.459Z,54.47
2024-03-12T05:35:42.009Z,53.97
2024-03-12T05:38:12.371Z,60.97
2024-03-12T05:40:43.080Z,61.60
2024-03-12T05:43:32.543Z,60.08
2024-03-12T05:46:19.303Z,42.43
2024-03-12T05:48:53.699Z,59.20
2024-03-12T05:51:21.456Z,42.28
2024-03-12T05:53:49.535Z,50.67
2024-03-12T05:56:19.017Z,51.25
2024-03-12T05:58:47.199Z,62.07
2024-03-12T06:01:14.952Z,66.47
2024-03-12T06:03:42.451Z,57.40
2024-03-12T06:06:09.811Z,55.63
2024-03-12T06:08:37.136Z,60.05
2024-03-12T06:11:04.608Z,55.30
2024-03-12T06:13:32.635Z,50.65
2024-03-12T06:16:00.126Z,57.15
2024-03-12T06:18:29.678Z,54.22
2024-03-12T06:20:57.108Z,54.42
2024-03-12T06:23:24.714Z,44.30
2024-03-12T06:25:52.054Z,54.75
2024-03-12T06:28:26.977Z,47.72
2024-03-12T06:30:54.364Z,53.70
2024-03-12T06:33:22.505Z,60.45
2024-03-12T06:35:50.055Z,53.47
2024-03-12T06:38:21.582Z,62.63
2024-03-12T06:40:49.572Z,52.85
2024-03-12T06:43:19.081Z,58.22
2024-03-12T06:45:47.941Z,54.17
2024-03-12T06:48:19.503Z,46.63
2024-03-12T06:50:47.300Z,60.40
2024-03-12T06:53:17.149Z,58.15
2024-03-12T06:55:48.037Z,52.90
2024-03-12T06:58:20.217Z,48.60
2024-03-12T07:00:49.454Z,52.47
2024-03-12T07:03:19.495Z,55.53
2024-03-12T07:05:49.252Z,55.05
2024-03-12T07:08:22.766Z,48.03
2024-03-12T07:10:53.060Z,51.92
2024-03-12T07:13:24.622Z,43.80
2024-03-12T07:15:52.127Z,43.15
2024-03-12T07:18:22.535Z,46.47
2024-03-12T07:20:53.721Z,48.28
2024-03-12T07:23:21.362Z,51.13
2024-03-12T07:25:48.695Z,55.67
2024-03-12T07:28:17.371Z,56.42
2024-03-12T07:30:46.575Z,51.00
2024-03-12T07:33:14.008Z,48.92
2024-03-12T07:35:41.404Z,45.85
2024-03-12T07:38:08.623Z,42.93
2024-03-12T07:40:36.574Z,48.83
2024-03-12T07:43:06.067Z,49.83
2024-03-12T07:45:33.477Z,59.03
2024-03-12T07:48:00.880Z,61.53
2024-03-12T07:50:32.020Z,53.87
2024-03-12T07:52:59.861Z,61.65
2024-03-12T07:55:27.226Z,40.05
2024-03-12T07:57:54.156Z,43.10
2024-03-12T08:00:21.449Z,58.53
2024-03-12T08:02:48.806Z,53.97
2024-03-12T08:05:16.046Z,45.38
2024-03-12T08:07:46.010Z,45.35
2024-03-12T08:10:13.760Z,49.45
2024-03-12T08:12:41.582Z,50.08
2024-03-12T08:15:10.381Z,37.33
2024-03-12T08:17:39.430Z,56.15
2024-03-12T08:20:07.339Z,42.10
2024-03-12T08:22:34.761Z,48.90
2024-03-12T08:25:02.317Z,52.13
2024-03-12T08:27:29.432Z,40.73
2024-03-12T08:29:58.627Z,49.85
2024-03-12T08:32:26.713Z,40.63
2024-03-12T08:34:54.186Z,46.35
2024-03-12T08:37:23.645Z,45.83
2024-03-12T08:39:51.407Z,41.80
2024-03-12T08:42:18.858Z,49.72
2024-03-12T08:44:46.227Z,39.92
2024-03-12T08:47:13.625Z,42.90
2024-03-12T08:49:42.780Z,38.80
2024-03-12T08:52:09.652Z,39.17
2024-03-12T08:54:36.996Z,46.60
2024-03-12T08:57:04.464Z,37.55
2024-03-12T08:59:31.804Z,47.72
2024-03-12T09:02:01.371Z,45.90
2024-03-12T09:04:31.831Z,35.30
2024-03-12T09:06:59.463Z,44.33
2024-03-12T09:09:27.937Z,40.92
2024-03-12T09:11:57.286Z,41.58
2024-03-12T09:14:25.733Z,55.92
2024-03-12T09:16:53.340Z,54.67
2024-03-12T09:19:25.864Z,47.67
2024-03-12T09:21:54.415Z,40.15
2024-03-12T09:24:21.402Z,30.13
2024-03-12T09:26:48.228Z,44.15
2024-03-12T09:29:15.549Z,38.00
2024-03-12T09:31:43.268Z,16.88
2024-03-12T09:34:13.613Z,36.08
2024-03-12T09:36:41.854Z,41.60
2024-03-12T09:39:12.340Z,39.80
2024-03-12T09:41:46.524Z,34.13
2024-03-12T09:44:14.204Z,37.08
2024-03-12T09:46:42.346Z,34.05
2024-03-12T09:49:14.412Z,35.67
2024-03-12T09:51:42.895Z,35.63
2024-03-12T09:54:10.734Z,37.83
2024-03-12T09:56:42.080Z,32.63
2024-03-12T09:59:09.469Z,37.80
2024-03-12T10:01:39.707Z,31.38
2024-03-12T10:04:07.896Z,30.77
2024-03-12T10:06:36.747Z,33.17
2024-03-12T10:09:06.321Z,32.45
2024-03-12T10:11:34.469Z,33.03
2024-03-12T10:14:04.897Z,35.10
2024-03-12T10:16:34.901Z,33.30
2024-03-12T10:19:16.431Z,35.37
2024-03-12T10:21:46.148Z,29.75
2024-03-12T10:24:23.003Z,35.53
2024-03-12T10:26:51.022Z,38.22
2024-03-12T10:29:21.842Z,34.78
2024-03-12T10:31:49.539Z,33.33
2024-03-12T10:34:21.320Z,32.65
2024-03-12T10:36:51.701Z,32.17
2024-03-12T10:39:27.440Z,34.22
2024-03-12T10:42:00.466Z,35.85
2024-03-12T10:44:29.213Z,30.07
2024-03-12T10:47:00.698Z,35.78
2024-03-12T10:49:29.647Z,32.10
2024-03-12T10:51:57.873Z,35.30
2024-03-12T10:54:25.363Z,22.60
2024-03-12T10:56:52.612Z,36.30
2024-03-12T10:59:22.579Z,32.75
2024-03-12T11:01:50.059Z,36.63
2024-03-12T11:04:18.579Z,32.42
2024-03-12T11:06:49.276Z,37.30
2024-03-12T11:09:22.778Z,40.40
2024-03-12T11:11:53.579Z,41.15
2024-03-12T11:14:21.706Z,34.70
2024-03-12T11:16:49.400Z,33.97
2024-03-12T11:19:25.801Z,31.25
2024-03-12T11:21:53.327Z,34.33
2024-03-12T11:24:31.280Z,28.08
2024-03-12T11:27:01.401Z,36.30
2024-03-12T11:30:09.935Z,31.52
2024-03-12T11:32:42.818Z,37.70
2024-03-12T11:35:18.813Z,35.30
2024-03-12T11:38:01.098Z,34.03
2024-03-12T11:40:38.527Z,31.55
2024-03-12T11:43:06.311Z,24.08
2024-03-12T11:45:42.891Z,27.35
2024-03-12T11:48:11.692Z,26.97
2024-03-12T11:50:46.276Z,32.35
2024-03-12T11:53:16.336Z,30.17
2024-03-12T11:56:12.133Z,33.80
2024-03-12T11:58:50.220Z,33.70
2024-03-12T12:01:32.407Z,31.10
2024-03-12T12:04:05.234Z,25.70
2024-03-12T12:06:33.485Z,39.13
2024-03-12T12:09:12.047Z,33.60
2024-03-12T12:11:40.168Z,35.72
2024-03-12T12:14:09.955Z,32.20
2024-03-12T12:16:38.072Z,34.95
2024-03-12T12:19:07.604Z,33.78
2024-03-12T12:21:35.251Z,37.13
2024-03-12T12:24:04.551Z,36.17
2024-03-12T12:26:34.488Z,30.13
2024-03-12T12:29:05.175Z,32.65
2024-03-12T12:31:38.286Z,38.67
2024-03-12T12:34:07.490Z,37.35
2024-03-12T12:36:44.668Z,30.95
2024-03-12T12:39:13.382Z,32.33
2024-03-12T12:41:44.999Z,34.40
2024-03-12T12:44:22.639Z,36.85
2024-03-12T12:46:50.754Z,35.58
2024-03-12T12:49:19.039Z,39.83
2024-03-12T12:51:47.873Z,33.73
2024-03-12T12:54:16.854Z,32.95
2024-03-12T12:56:45.420Z,29.05
2024-03-12T12:59:18.235Z,29.23
2024-03-12T13:01:49.057Z,19.55
2024-03-12T13:04:25.387Z,34.67
2024-03-12T13:06:55.169Z,27.92
2024-03-12T13:09:33.468Z,37.13
2024-03-12T13:12:01.833Z,36.17
2024-03-12T13:14:29.336Z,31.60
2024-03-12T13:17:00.802Z,34.77
2024-03-12T13:19:28.270Z,42.65
2024-03-12T13:21:57.593Z,41.78
2024-03-12T13:24:25.250Z,33.97
2024-03-12T13:26:52.570Z,29.02
2024-03-12T13:29:19.830Z,39.23
2024-03-12T13:31:47.622Z,32.60
2024-03-12T13:34:15.191Z,40.47
2024-03-12T13:36:44.508Z,38.58
2024-03-12T13:39:16.189Z,40.05
2024-03-12T13:41:43.401Z,36.53
2024-03-12T13:44:10.657Z,40.33
2024-03-12T13:46:41.435Z,43.38
2024-03-12T13:49:15.720Z,38.78
2024-03-12T13:51:44.174Z,43.28
2024-03-12T13:54:12.050Z,42.53
2024-03-12T13:56:39.422Z,37.03
2024-03-12T13:59:06.685Z,42.88
2024-03-12T14:01:39.218Z,42.75
2024-03-12T14:04:07.783Z,37.58
2024-03-12T14:06:36.012Z,42.13
2024-03-12T14:09:05.924Z,27.83
2024-03-12T14:11:33.473Z,40.97
2024-03-12T14:14:01.927Z,49.10
2024-03-12T14:16:31.185Z,46.42
2024-03-12T14:18:58.043Z,47.07
2024-03-12T14:21:25.397Z,38.15
2024-03-12T14:23:53.738Z,43.90
2024-03-12T14:26:22.293Z,40.40
2024-03-12T14:28:49.126Z,46.58
2024-03-12T14:31:16.534Z,46.83
2024-03-12T14:33:44.022Z,34.88
2024-03-12T14:36:14.522Z,36.25
2024-03-12T14:38:42.454Z,30.08
2024-03-12T14:41:09.503Z,36.53
2024-03-12T14:43:37.074Z,37.27
2024-03-12T14:46:05.963Z,45.65
2024-03-12T14:48:35.316Z,37.63
2024-03-12T14:51:02.769Z,48.88
2024-03-12T14:53:29.733Z,44.88
2024-03-12T14:56:00.194Z,44.97
2024-03-12T14:58:28.636Z,47.08
2024-03-12T15:00:55.952Z,45.80
2024-03-12T15:03:22.799Z,47.72
2024-03-12T15:05:55.395Z,36.47
2024-03-12T15:08:23.061Z,38.73
2024-03-12T15:10:50.877Z,46.20
2024-03-12T15:13:17.913Z,48.25
2024-03-12T15:15:45.488Z,41.10
2024-03-12T15:18:14.269Z,46.70
2024-03-12T15:20:42.877Z,48.37
2024-03-12T15:23:11.054Z,36.45
2024-03-12T15:25:38.445Z,51.83
2024-03-12T15:28:05.656Z,45.33
2024-03-12T15:30:34.704Z,44.50
2024-03-12T15:33:02.230Z,47.97
2024-03-12T15:35:29.176Z,42.70
2024-03-12T15:37:59.646Z,46.42
2024-03-12T15:40:27.229Z,51.70
2024-03-12T15:42:54.354Z,46.83
2024-03-12T15:45:22.083Z,35.10
2024-03-12T15:47:49.566Z,41.95
2024-03-12T15:50:17.210Z,44.17
2024-03-12T15:52:44.592Z,41.95
2024-03-12T15:55:14.168Z,43.50
2024-03-12T15:57:42.162Z,41.47
2024-03-12T16:00:14.733Z,47.33
2024-03-12T16:02:43.043Z,45.85
2024-03-12T16:05:10.841Z,46.15
2024-03-12T16:07:40.458Z,43.08
2024-03-12T16:10:11.413Z,33.27
2024-03-12T16:12:41.807Z,36.08
2024-03-12T16:15:12.098Z,47.00
2024-03-12T16:17:39.343Z,45.88
2024-03-12T16:20:16.553Z,39.47
2024-03-12T16:22:44.195Z,46.13
2024-03-12T16:25:12.131Z,46.60
2024-03-12T16:27:40.772Z,47.63
2024-03-12T16:30:10.239Z,57.40
2024-03-12T16:32:41.000Z,44.42
2024-03-12T16:35:09.118Z,51.60
2024-03-12T16:37:39.192Z,54.05
2024-03-12T16:40:09.192Z,46.97
2024-03-12T16:42:36.900Z,44.75
2024-03-12T16:45:06.445Z,52.63
2024-03-12T16:47:34.261Z,45.00
2024-03-12T16:50:05.627Z,42.03
2024-03-12T16:52:33.014Z,41.03
2024-03-12T16:55:01.986Z,43.20
2024-03-12T16:57:29.678Z,49.63
2024-03-12T16:59:57.343Z,56.43
2024-03-12T17:02:35.734Z,50.50
2024-03-12T17:05:03.189Z,47.90
2024-03-12T17:07:33.924Z,50.22
2024-03-12T17:10:01.469Z,53.45
2024-03-12T17:12:30.360Z,47.33
2024-03-12T17:14:57.899Z,37.28
2024-03-12T17:17:25.549Z,45.15
2024-03-12T17:19:53.046Z,46.55
2024-03-12T17:22:23.128Z,46.60
2024-03-12T17:24:54.041Z,29.60
2024-03-12T17:27:23.993Z,49.13
2024-03-12T17:29:51.646Z,36.53
2024-03-12T17:32:18.808Z,38.25
2024-03-12T17:34:46.226Z,41.60
2024-03-12T17:37:15.756Z,41.87
2024-03-12T17:39:49.013Z,36.50
2024-03-12T17:42:21.864Z,37.30
2024-03-12T17:44:49.693Z,39.92
2024-03-12T17:47:22.242Z,39.17
2024-03-12T17:49:52.873Z,43.70
2024-03-12T17:52:20.698Z,48.13
2024-03-12T17:54:48.007Z,53.97
2024-03-12T17:57:15.789Z,45.00
2024-03-12T17:59:46.124Z,48.30
2024-03-12T18:02:14.679Z,46.87
2024-03-12T18:04:42.691Z,48.97
2024-03-12T18:07:26.443Z,53.33
2024-03-12T18:09:56.133Z,53.95
2024-03-12T18:12:23.842Z,49.45
2024-03-12T18:14:51.412Z,52.67
2024-03-12T18:17:22.959Z,51.08
2024-03-12T18:19:51.334Z,49.40
2024-03-12T18:22:20.307Z,38.72
2024-03-12T18:24:49.952Z,41.92
2024-03-12T18:27:20.597Z,45.67
2024-03-12T18:29:50.419Z,32.83
2024-03-12T18:32:20.149Z,47.05
2024-03-12T18:34:49.174Z,36.30
2024-03-12T18:37:17.883Z,39.67
2024-03-12T18:39:46.782Z,37.67
2024-03-12T18:42:14.036Z,31.13
2024-03-12T18:44:42.890Z,37.17
2024-03-12T18:47:10.674Z,32.17
2024-03-12T18:49:38.098Z,41.28
2024-03-12T18:52:05.381Z,37.60
2024-03-12T18:54:33.224Z,34.50
2024-03-12T18:57:01.191Z,40.63
2024-03-12T18:59:28.608Z,37.08
2024-03-12T19:02:04.306Z,38.75
2024-03-12T19:04:35.397Z,36.37
2024-03-12T19:07:04.995Z,34.00
2024-03-12T19:09:33.777Z,27.50
2024-03-12T19:12:02.531Z,35.53
2024-03-12T19:14:31.030Z,36.55
2024-03-12T19:17:01.190Z,35.30
2024-03-12T19:19:30.560Z,35.33
2024-03-12T19:21:58.134Z,33.67
2024-03-12T19:24:26.195Z,35.95
2024-03-12T19:26:53.506Z,40.67
2024-03-12T19:29:22.507Z,34.87
2024-03-12T19:31:50.449Z,34.60
2024-03-12T19:34:18.035Z,25.38
2024-03-12T19:36:45.634Z,32.70
2024-03-12T19:39:13.791Z,31.42
2024-03-12T19:41:45.511Z,37.87
2024-03-12T19:44:13.247Z,31.65
2024-03-12T19:46:43.643Z,33.42
2024-03-12T19:49:10.991Z,35.58
2024-03-12T19:51:38.684Z,33.22
2024-03-12T19:54:09.473Z,35.80
2024-03-12T19:56:37.441Z,29.13
2024-03-12T19:59:05.969Z,32.20
2024-03-12T20:01:34.634Z,31.92
2024-03-12T20:04:02.441Z,23.85
2024-03-12T20:06:31.588Z,30.17
2024-03-12T20:09:01.242Z,30.98
2024-03-12T20:11:28.378Z,29.90
2024-03-12T20:13:56.322Z,25.30
2024-03-12T20:16:23.427Z,33.13
2024-03-12T20:18:50.844Z,31.27
2024-03-12T20:21:18.161Z,27.88
2024-03-12T20:23:45.451Z,30.00
2024-03-12T20:26:12.339Z,30.77
2024-03-12T20:28:42.302Z,29.08
2024-03-12T20:31:10.112Z,32.10
2024-03-12T20:33:39.762Z,32.65
2024-03-12T20:36:08.517Z,31.27
2024-03-12T20:38:35.904Z,30.80
2024-03-12T20:41:03.935Z,31.08
2024-03-12T20:43:31.346Z,32.13
2024-03-12T20:45:58.695Z,31.90
2024-03-12T20:48:25.678Z,29.67
2024-03-12T20:50:52.587Z,26.33
2024-03-12T20:53:21.289Z,28.88
2024-03-12T20:55:48.286Z,37.70
2024-03-12T20:58:15.166Z,27.17
2024-03-12T21:00:42.702Z,31.55
2024-03-12T21:03:10.693Z,27.85
2024-03-12T21:05:39.044Z,31.38
2024-03-12T21:08:08.183Z,32.10
2024-03-12T21:10:35.966Z,34.28
2024-03-12T21:13:03.036Z,24.63
2024-03-12T21:15:30.773Z,29.80
2024-03-12T21:17:58.133Z,32.95
2024-03-12T21:20:33.742Z,34.60
2024-03-12T21:23:01.518Z,32.58
2024-03-12T21:25:28.482Z,29.60
2024-03-12T21:27:57.887Z,30.95
2024-03-12T21:30:25.698Z,35.25
2024-03-12T21:32:53.854Z,31.63
2024-03-12T21:35:21.177Z,28.90
2024-03-12T21:37:48.082Z,32.22
2024-03-12T21:40:17.714Z,16.15
2024-03-12T21:42:44.867Z,37.15
2024-03-12T21:45:12.992Z,33.23
2024-03-12T21:47:41.527Z,29.35
2024-03-12T21:50:15.660Z,36.67
2024-03-12T21:52:43.122Z,34.42
2024-03-12T21:55:11.995Z,25.75
2024-03-12T21:57:40.780Z,27.77
2024-03-12T22:00:25.084Z,31.33
2024-03-12T22:02:52.593Z,21.92
2024-03-12T22:05:24.048Z,30.05
2024-03-12T22:07:51.659Z,26.95
2024-03-12T22:10:19.252Z,23.80
2024-03-12T22:12:46.775Z,29.50
2024-03-12T22:15:16.153Z,40.88
2024-03-12T22:17:45.577Z,33.83
2024-03-12T22:20:17.877Z,39.08
2024-03-12T22:22:45.661Z,28.43
2024-03-12T22:25:13.844Z,29.63
2024-03-12T22:27:45.043Z,32.70
2024-03-12T22:30:12.616Z,28.30
2024-03-12T22:32:43.148Z,28.80
2024-03-12T22:35:11.061Z,37.97
2024-03-12T22:37:38.510Z,36.60
2024-03-12T22:40:06.084Z,37.95
2024-03-12T22:42:33.585Z,36.33
2024-03-12T22:45:04.134Z,40.28
2024-03-12T22:47:32.988Z,35.13
2024-03-12T22:50:00.534Z,30.13
2024-03-12T22:52:28.988Z,36.80
2024-03-12T22:54:56.560Z,33.53
2024-03-12T22:57:24.174Z,32.60
2024-03-12T22:59:54.381Z,35.87
2024-03-12T23:02:22.563Z,33.03
2024-03-12T23:04:51.907Z,32.00
2024-03-12T23:07:19.783Z,36.83
2024-03-12T23:09:47.319Z,35.67
2024-03-12T23:12:14.788Z,28.50
2024-03-12T23:14:42.401Z,35.20
2024-03-12T23:17:10.168Z,35.92
2024-03-12T23:19:41.436Z,27.27
2024-03-12T23:22:10.511Z,28.17
2024-03-12T23:24:39.246Z,31.83
2024-03-12T23:27:06.447Z,34.08
2024-03-12T23:29:33.491Z,34.92
2024-03-12T23:32:01.105Z,35.03
2024-03-12T23:34:28.583Z,30.45
2024-03-12T23:36:55.621Z,32.60
2024-03-12T23:39:24.971Z,28.42
2024-03-12T23:41:53.947Z,35.10
2024-03-12T23:44:21.288Z,39.70
2024-03-12T23:46:49.391Z,28.67
2024-03-12T23:49:16.368Z,30.93
2024-03-12T23:51:43.657Z,27.40
2024-03-12T23:54:10.989Z,34.33
2024-03-12T23:56:39.547Z,25.20
2024-03-12T23:59:06.967Z,29.27
